Terminal Aerodrome Forecast
Issued by NWS Louisville, KY

Home | Current Version | Previous Version | Text Only | Print | Product List | Glossary On
Versions: 1 2 3 4 5 6 7 8 9 10 11 12 13
435
FTUS43 KLMK 251131
TAFSDF
TAF
KSDF 251131Z 2512/2618 18007KT P6SM FEW040 BKN180 WS020/20045KT
     FM251300 18015G22KT P6SM SCT040 BKN150
     FM251700 17017G28KT P6SM BKN060
     FM252200 17015G23KT P6SM BKN050
     FM260300 16008KT 5SM -SHRA BR BKN040
     FM260600 17007KT 4SM -SHRA BR BKN028=

USA.gov is the U.S. government's official web portal to all federal, state and local government web resources and services.